Time;durP1;ratioP1;P1;durP2;ratioP2;P2;SDS_P1;SDS_P2;PMS_P1;PMS_P2;Temp;Humidity;BMP_temperature;BMP_pressure;BME280_temperature;BME280_humidity;BME280_pressure;Samples;Min_cycle;Max_cycle;Signal;HPM_P1;HPM_P2
2021/06/25 00:00:36;;;;;;;7.10;6.40;;;19.70;1.00;;;;;;5097003;28;20460;-70
2021/06/25 00:03:03;;;;;;;6.13;5.63;;;19.70;1.00;;;;;;5102575;28;20453;-70
2021/06/25 00:05:32;;;;;;;6.83;6.23;;;19.60;1.00;;;;;;5103070;28;20453;-70
2021/06/25 00:07:58;;;;;;;6.77;6.10;;;19.70;1.00;;;;;;5102816;28;20449;-70
2021/06/25 00:10:27;;;;;;;6.30;5.70;;;19.70;1.00;;;;;;5103403;28;20815;-70
2021/06/25 00:12:53;;;;;;;6.50;5.90;;;19.60;1.00;;;;;;5104462;28;20931;-70
2021/06/25 00:15:20;;;;;;;7.27;6.57;;;19.60;1.00;;;;;;5104171;28;20460;-70
2021/06/25 00:17:47;;;;;;;6.60;6.00;;;19.60;1.00;;;;;;5104446;28;20809;-70
2021/06/25 00:20:15;;;;;;;7.17;6.53;;;19.60;1.00;;;;;;5105344;28;20521;-70
2021/06/25 00:22:42;;;;;;;7.40;6.70;;;19.50;1.00;;;;;;5104704;28;20453;-70
2021/06/25 00:25:10;;;;;;;7.37;6.70;;;19.50;1.00;;;;;;5105359;28;20453;-71
2021/06/25 00:27:38;;;;;;;8.20;7.40;;;19.50;1.00;;;;;;5105147;28;20778;-71
2021/06/25 00:30:08;;;;;;;9.70;6.70;;;19.50;1.00;;;;;;5105542;28;20468;-70
2021/06/25 00:32:35;;;;;;;7.03;6.43;;;19.40;1.00;;;;;;5105571;28;20786;-70
2021/06/25 00:35:02;;;;;;;8.03;6.67;;;19.40;1.00;;;;;;5105795;28;20453;-70
2021/06/25 00:37:28;;;;;;;8.07;6.93;;;19.40;1.00;;;;;;5105502;28;20787;-70
2021/06/25 00:39:55;;;;;;;8.73;7.20;;;19.40;1.00;;;;;;5105600;28;20898;-70
2021/06/25 00:42:22;;;;;;;6.97;6.30;;;19.30;1.00;;;;;;5105772;28;20452;-70
2021/06/25 00:44:50;;;;;;;7.57;6.87;;;19.30;1.00;;;;;;5104998;28;20463;-70
2021/06/25 00:47:17;;;;;;;6.80;6.20;;;19.30;1.00;;;;;;5105552;28;20472;-70
2021/06/25 00:49:43;;;;;;;8.80;6.80;;;19.30;1.00;;;;;;5105936;28;20449;-70
2021/06/25 00:52:15;;;;;;;7.47;6.80;;;19.20;1.00;;;;;;5106215;28;20453;-70
2021/06/25 00:54:42;;;;;;;8.17;7.37;;;19.20;1.00;;;;;;5106123;28;20772;-70
2021/06/25 00:57:08;;;;;;;8.13;7.40;;;19.10;1.00;;;;;;5106058;28;20580;-70
2021/06/25 00:59:35;;;;;;;7.60;6.90;;;19.10;1.00;;;;;;5105806;28;20479;-70
2021/06/25 01:02:03;;;;;;;7.97;7.27;;;19.10;1.00;;;;;;5105125;28;20449;-70
2021/06/25 01:04:30;;;;;;;7.90;7.20;;;19.10;1.00;;;;;;5105442;28;20456;-70
2021/06/25 01:06:57;;;;;;;7.73;7.00;;;19.20;1.00;;;;;;5105159;28;20463;-70
2021/06/25 01:09:25;;;;;;;8.80;7.57;;;19.20;1.00;;;;;;5105266;28;20464;-70
2021/06/25 01:11:52;;;;;;;8.73;7.73;;;19.10;1.00;;;;;;5104618;28;20465;-70
2021/06/25 01:14:20;;;;;;;9.60;7.80;;;19.10;1.00;;;;;;5101275;28;20909;-70
2021/06/25 01:16:47;;;;;;;10.70;8.70;;;19.10;1.00;;;;;;5101303;28;20573;-70
2021/06/25 01:19:15;;;;;;;8.17;7.40;;;19.10;1.00;;;;;;5101251;28;20464;-70
2021/06/25 01:21:45;;;;;;;7.50;6.80;;;19.10;1.00;;;;;;5101152;28;20515;-70
2021/06/25 01:24:14;;;;;;;9.57;8.60;;;19.20;1.00;;;;;;5101606;28;20454;-70
2021/06/25 01:26:41;;;;;;;9.03;8.13;;;19.20;1.00;;;;;;5102686;28;20464;-70
2021/06/25 01:29:07;;;;;;;8.60;7.80;;;19.20;1.00;;;;;;5104198;28;20541;-70
2021/06/25 01:31:34;;;;;;;9.70;8.80;;;19.20;1.00;;;;;;5102427;28;20922;-70
2021/06/25 01:34:03;;;;;;;10.50;9.33;;;19.10;1.00;;;;;;5102314;28;20452;-70
2021/06/25 01:36:31;;;;;;;11.33;8.57;;;19.10;1.00;;;;;;5102432;28;20473;-70
2021/06/25 01:39:00;;;;;;;8.93;8.10;;;19.10;1.00;;;;;;5102308;28;20793;-70
2021/06/25 01:41:30;;;;;;;9.70;8.80;;;19.10;1.00;;;;;;5102402;28;20464;-70
2021/06/25 01:43:57;;;;;;;10.60;9.23;;;19.10;1.00;;;;;;5101530;28;20457;-70
2021/06/25 01:46:24;;;;;;;9.23;8.33;;;19.00;1.00;;;;;;5100995;28;20491;-70
2021/06/25 01:48:50;;;;;;;8.37;7.67;;;19.00;1.00;;;;;;5100665;28;20449;-70
2021/06/25 01:51:18;;;;;;;8.80;7.77;;;19.00;1.00;;;;;;5100081;28;20454;-70
2021/06/25 01:53:45;;;;;;;8.93;8.13;;;19.10;1.00;;;;;;5099324;28;20510;-67
2021/06/25 01:56:13;;;;;;;9.87;8.60;;;19.10;1.00;;;;;;5097204;28;20844;-68
2021/06/25 01:58:40;;;;;;;9.40;8.57;;;19.10;1.00;;;;;;5097448;28;20453;-68
2021/06/25 02:01:10;;;;;;;9.30;8.13;;;19.00;1.00;;;;;;5097321;28;20790;-67
2021/06/25 02:03:38;;;;;;;8.60;7.80;;;19.00;1.00;;;;;;5097309;28;20467;-67
2021/06/25 02:06:05;;;;;;;8.90;8.10;;;19.00;1.00;;;;;;5097761;28;20453;-68
2021/06/25 02:08:32;;;;;;;9.00;8.30;;;19.00;1.00;;;;;;5097191;28;20513;-68
2021/06/25 02:10:59;;;;;;;11.13;8.40;;;19.00;1.00;;;;;;5097408;28;20462;-67
2021/06/25 02:13:27;;;;;;;8.33;7.40;;;19.00;1.00;;;;;;5097647;28;20829;-67
2021/06/25 02:15:57;;;;;;;9.43;8.60;;;19.00;1.00;;;;;;5097058;28;20456;-67
2021/06/25 02:18:24;;;;;;;8.90;8.00;;;19.00;1.00;;;;;;5096673;28;20481;-68
2021/06/25 02:20:51;;;;;;;9.03;8.13;;;19.10;1.00;;;;;;5096753;28;20453;-68
2021/06/25 02:23:17;;;;;;;8.00;7.20;;;19.10;1.00;;;;;;5095940;28;20468;-68
2021/06/25 02:25:45;;;;;;;7.83;7.10;;;19.00;1.00;;;;;;5096441;28;20547;-68
2021/06/25 02:28:11;;;;;;;8.17;6.73;;;19.10;1.00;;;;;;5096570;28;20453;-68
2021/06/25 02:30:39;;;;;;;7.10;6.50;;;19.00;1.00;;;;;;5096162;28;20483;-68
2021/06/25 02:33:06;;;;;;;8.40;6.80;;;19.00;1.00;;;;;;5096890;28;20464;-67
2021/06/25 02:35:33;;;;;;;6.93;6.30;;;19.10;1.00;;;;;;5096821;28;20461;-67
2021/06/25 02:38:00;;;;;;;6.37;5.87;;;19.00;1.00;;;;;;5096647;28;20508;-67
2021/06/25 02:40:26;;;;;;;6.67;6.13;;;19.10;1.00;;;;;;5096533;28;20457;-67
2021/06/25 02:42:53;;;;;;;6.47;5.80;;;19.00;1.00;;;;;;5097059;28;20457;-68
2021/06/25 02:45:20;;;;;;;5.97;5.37;;;19.10;1.00;;;;;;5096740;28;20483;-67
2021/06/25 02:47:48;;;;;;;6.03;5.43;;;19.10;1.00;;;;;;5096590;28;20477;-68
2021/06/25 02:50:16;;;;;;;7.70;6.10;;;19.10;1.00;;;;;;5097062;28;20453;-68
2021/06/25 02:52:43;;;;;;;5.87;5.37;;;19.10;1.00;;;;;;5097022;28;20453;-67
2021/06/25 02:55:12;;;;;;;5.80;5.20;;;19.00;1.00;;;;;;5096795;28;20468;-68
2021/06/25 02:57:39;;;;;;;5.90;5.37;;;19.00;1.00;;;;;;5096691;28;20477;-67
2021/06/25 03:00:08;;;;;;;7.70;5.80;;;19.00;1.00;;;;;;5096366;28;20461;-68
2021/06/25 03:02:35;;;;;;;6.20;5.60;;;19.10;1.00;;;;;;5096376;28;20457;-68
2021/06/25 03:05:04;;;;;;;6.20;5.60;;;19.00;1.00;;;;;;5096719;28;20457;-67
2021/06/25 03:07:31;;;;;;;6.80;6.10;;;19.00;1.00;;;;;;5097857;28;20453;-68
2021/06/25 03:09:57;;;;;;;6.37;5.77;;;19.00;1.00;;;;;;5097155;28;20974;-66
2021/06/25 03:12:24;;;;;;;6.90;6.03;;;18.90;1.00;;;;;;5097004;28;20457;-67
2021/06/25 03:14:52;;;;;;;6.60;5.90;;;18.90;1.00;;;;;;5096242;28;20453;-68
2021/06/25 03:17:19;;;;;;;6.93;6.23;;;18.90;1.00;;;;;;5096163;28;20568;-69
2021/06/25 03:19:46;;;;;;;7.27;6.60;;;19.00;1.00;;;;;;5096065;28;20497;-68
2021/06/25 03:22:14;;;;;;;8.30;6.97;;;19.00;1.00;;;;;;5096267;28;20461;-68
2021/06/25 03:24:40;;;;;;;7.53;6.83;;;19.00;1.00;;;;;;5095932;28;20453;-67
2021/06/25 03:27:07;;;;;;;8.13;6.70;;;19.00;1.00;;;;;;5095222;28;20449;-67
2021/06/25 03:29:34;;;;;;;11.53;7.47;;;19.00;1.00;;;;;;5095138;28;20462;-68
2021/06/25 03:32:04;;;;;;;8.13;7.37;;;19.10;1.00;;;;;;5095647;28;20457;-68
2021/06/25 03:34:31;;;;;;;7.47;6.77;;;19.10;1.00;;;;;;5095660;28;20472;-66
2021/06/25 03:36:58;;;;;;;6.73;6.23;;;19.00;1.00;;;;;;5095152;28;20461;-67
2021/06/25 03:39:26;;;;;;;9.17;8.23;;;19.00;1.00;;;;;;5095574;28;20484;-67
2021/06/25 03:41:53;;;;;;;9.67;7.80;;;19.00;1.00;;;;;;5095660;28;20458;-67
2021/06/25 03:44:19;;;;;;;8.47;7.70;;;19.00;1.00;;;;;;5095717;28;20761;-68
2021/06/25 03:46:48;;;;;;;8.90;8.10;;;18.90;1.00;;;;;;5095690;28;20481;-66
2021/06/25 03:49:17;;;;;;;8.13;7.33;;;18.90;1.00;;;;;;5095236;28;20944;-68
2021/06/25 03:51:44;;;;;;;9.37;8.40;;;18.90;1.00;;;;;;5095703;28;20453;-66
2021/06/25 03:54:10;;;;;;;8.03;7.33;;;18.90;1.20;;;;;;5095628;28;20457;-66
2021/06/25 03:56:38;;;;;;;7.63;6.93;;;18.90;1.00;;;;;;5095650;28;20467;-66
2021/06/25 03:59:05;;;;;;;8.43;7.63;;;18.90;3.50;;;;;;5095140;28;20972;-66
2021/06/25 04:01:32;;;;;;;6.50;6.00;;;18.90;3.20;;;;;;5095609;28;20847;-66
2021/06/25 04:03:58;;;;;;;9.63;7.70;;;18.90;4.20;;;;;;5095892;28;20457;-68
2021/06/25 04:06:25;;;;;;;8.33;7.40;;;18.90;4.20;;;;;;5095680;28;20475;-68
2021/06/25 04:08:52;;;;;;;8.43;7.50;;;19.00;1.00;;;;;;5095246;28;20461;-68
2021/06/25 04:11:18;;;;;;;7.37;6.67;;;19.10;1.00;;;;;;5096244;28;20460;-68
2021/06/25 04:13:47;;;;;;;6.93;6.33;;;19.10;1.00;;;;;;5095886;28;20449;-68
2021/06/25 04:16:15;;;;;;;9.93;6.87;;;19.10;1.00;;;;;;5096388;28;20458;-68
2021/06/25 04:18:46;;;;;;;8.33;7.47;;;19.20;1.00;;;;;;5095916;28;20488;-68
2021/06/25 04:21:13;;;;;;;9.17;7.40;;;19.30;1.00;;;;;;5095920;28;20465;-70
2021/06/25 04:23:40;;;;;;;8.87;7.97;;;19.40;1.00;;;;;;5096402;28;20464;-68
2021/06/25 04:26:07;;;;;;;11.17;7.37;;;19.40;1.00;;;;;;5095992;28;20453;-69
2021/06/25 04:28:35;;;;;;;8.00;7.00;;;19.40;1.00;;;;;;5096089;28;20457;-68
2021/06/25 04:31:03;;;;;;;10.10;8.03;;;19.50;1.00;;;;;;5096175;28;20453;-68
2021/06/25 04:33:30;;;;;;;7.40;6.70;;;19.50;1.00;;;;;;5095387;28;20804;-68
2021/06/25 04:35:57;;;;;;;11.03;6.80;;;19.50;1.00;;;;;;5095512;28;20464;-68
2021/06/25 04:38:24;;;;;;;8.70;7.90;;;19.50;1.00;;;;;;5095200;28;20487;-68
2021/06/25 04:40:51;;;;;;;7.90;7.10;;;19.50;1.00;;;;;;5095290;28;20457;-68
2021/06/25 04:43:19;;;;;;;7.33;6.63;;;19.50;1.00;;;;;;5095526;28;20453;-68
2021/06/25 04:45:46;;;;;;;10.40;7.60;;;19.50;1.00;;;;;;5095151;28;20457;-68
2021/06/25 04:48:16;;;;;;;7.30;6.67;;;19.50;1.00;;;;;;5096525;28;20499;-68
2021/06/25 04:50:46;;;;;;;7.80;7.10;;;19.50;1.00;;;;;;5098769;28;20424;-68
2021/06/25 04:53:14;;;;;;;7.13;6.53;;;19.50;1.00;;;;;;5098795;28;20492;-68
2021/06/25 04:55:42;;;;;;;8.00;7.30;;;19.50;1.00;;;;;;5098492;28;20468;-68
2021/06/25 04:58:10;;;;;;;7.70;7.00;;;19.50;1.00;;;;;;5098504;28;20487;-68
2021/06/25 05:00:37;;;;;;;7.97;7.27;;;19.60;1.00;;;;;;5098947;28;20452;-68
2021/06/25 05:03:05;;;;;;;9.03;7.43;;;19.70;1.00;;;;;;5098629;28;20468;-68
2021/06/25 05:05:34;;;;;;;9.70;8.33;;;19.70;1.00;;;;;;5098208;28;20548;-68
2021/06/25 05:08:01;;;;;;;9.90;8.63;;;19.70;1.00;;;;;;5098658;28;20450;-68
2021/06/25 05:10:29;;;;;;;11.53;7.90;;;19.60;1.00;;;;;;5098697;28;20468;-68
2021/06/25 05:12:56;;;;;;;8.50;7.60;;;19.60;1.00;;;;;;5098430;28;20914;-68
2021/06/25 05:15:23;;;;;;;8.73;7.83;;;19.50;1.00;;;;;;5098491;28;20457;-68
2021/06/25 05:17:51;;;;;;;8.57;7.40;;;19.50;1.00;;;;;;5098443;28;20907;-68
2021/06/25 05:20:18;;;;;;;11.10;8.50;;;19.60;1.00;;;;;;5098325;28;20453;-68
2021/06/25 05:22:50;;;;;;;8.43;7.57;;;19.60;1.00;;;;;;5099558;28;20460;-68
2021/06/25 05:25:21;;;;;;;10.63;7.33;;;19.70;1.00;;;;;;5098810;28;20876;-67
2021/06/25 05:27:48;;;;;;;12.30;8.20;;;19.70;1.00;;;;;;5098492;28;20461;-69
2021/06/25 05:30:16;;;;;;;12.47;7.77;;;19.70;1.00;;;;;;5098439;28;20469;-68
2021/06/25 05:32:44;;;;;;;8.73;7.30;;;19.80;1.00;;;;;;5098116;28;20457;-68
2021/06/25 05:35:13;;;;;;;8.87;7.73;;;19.90;1.00;;;;;;5098296;28;20514;-69
2021/06/25 05:37:43;;;;;;;9.50;8.20;;;20.00;1.00;;;;;;5097878;28;20488;-68
2021/06/25 05:40:13;;;;;;;11.93;7.77;;;20.10;1.00;;;;;;5097448;28;20457;-68
2021/06/25 05:42:40;;;;;;;10.20;8.77;;;20.20;1.00;;;;;;5098071;28;20457;-69
2021/06/25 05:45:10;;;;;;;8.63;7.73;;;20.30;1.00;;;;;;5097799;28;20458;-67
2021/06/25 05:47:39;;;;;;;10.83;8.07;;;20.40;1.00;;;;;;5097300;28;20578;-67
2021/06/25 05:50:07;;;;;;;12.10;8.90;;;20.50;1.00;;;;;;5097186;28;20940;-67
2021/06/25 05:52:34;;;;;;;9.63;8.30;;;20.50;1.00;;;;;;5097873;28;20797;-68
2021/06/25 05:55:01;;;;;;;9.27;8.27;;;20.60;99.90;;;;;;5097239;28;20457;-67
2021/06/25 05:57:29;;;;;;;10.80;8.23;;;20.60;99.90;;;;;;5097183;28;20914;-67
2021/06/25 05:59:56;;;;;;;10.47;9.50;;;20.60;99.90;;;;;;5097264;28;20457;-68
2021/06/25 06:02:22;;;;;;;8.70;7.83;;;20.60;99.90;;;;;;5097878;28;20461;-68
2021/06/25 06:04:49;;;;;;;10.00;8.60;;;20.70;99.90;;;;;;5097863;28;20479;-68
2021/06/25 06:07:17;;;;;;;9.73;7.60;;;20.70;99.90;;;;;;5097227;28;21019;-67
2021/06/25 06:09:43;;;;;;;23.53;9.87;;;20.80;99.90;;;;;;5097449;28;20751;-67
2021/06/25 06:12:11;;;;;;;13.13;8.80;;;20.80;64.30;;;;;;5096939;28;20937;-67
2021/06/25 06:14:39;;;;;;;9.97;8.50;;;20.90;20.30;;;;;;5097378;28;20465;-67
2021/06/25 06:17:07;;;;;;;27.23;10.77;;;20.90;1.00;;;;;;5096956;28;20914;-68
2021/06/25 06:19:39;;;;;;;14.20;9.20;;;20.90;1.00;;;;;;5097036;28;20498;-68
2021/06/25 06:33:09;;;;;;;10.07;7.57;;;21.20;1.00;;;;;;5097080;28;20425;-68
2021/06/25 06:35:36;;;;;;;8.07;7.27;;;21.20;1.00;;;;;;5096710;28;20452;-69
2021/06/25 06:38:05;;;;;;;18.03;7.87;;;21.20;99.90;;;;;;5096688;28;20565;-68
2021/06/25 06:40:33;;;;;;;17.67;8.53;;;21.10;1.00;;;;;;5096622;28;20933;-68
2021/06/25 06:43:00;;;;;;;8.80;6.33;;;21.10;1.00;;;;;;5096806;28;20457;-68
2021/06/25 06:45:31;;;;;;;9.07;7.33;;;21.20;99.90;;;;;;5096976;28;20453;-68
2021/06/25 06:47:58;;;;;;;12.80;6.37;;;21.30;99.90;;;;;;5096128;28;20488;-67
2021/06/25 06:50:25;;;;;;;7.77;6.57;;;21.30;1.00;;;;;;5096444;28;20456;-67
2021/06/25 06:52:51;;;;;;;11.93;6.10;;;21.40;1.00;;;;;;5096409;28;20446;-68
2021/06/25 06:55:20;;;;;;;7.60;6.80;;;21.50;76.60;;;;;;5096458;28;20461;-68
2021/06/25 06:57:47;;;;;;;9.07;6.57;;;21.50;1.00;;;;;;5096333;28;20812;-66
2021/06/25 07:00:15;;;;;;;7.70;6.77;;;21.60;99.90;;;;;;5095944;28;20458;-67
2021/06/25 07:02:44;;;;;;;8.40;7.30;;;21.60;1.00;;;;;;5096194;28;20461;-68
2021/06/25 07:05:13;;;;;;;7.60;6.90;;;21.60;99.90;;;;;;5095940;28;20461;-67
2021/06/25 07:07:41;;;;;;;9.97;7.53;;;21.60;99.90;;;;;;5095886;28;20727;-67
2021/06/25 07:10:10;;;;;;;7.83;6.07;;;21.50;99.90;;;;;;5095119;28;20762;-67
2021/06/25 07:12:39;;;;;;;9.93;6.57;;;21.50;99.90;;;;;;5095917;28;20457;-67
2021/06/25 07:15:07;;;;;;;12.30;6.50;;;21.50;99.90;;;;;;5095658;28;20453;-67
2021/06/25 07:17:34;;;;;;;8.40;6.77;;;21.40;99.90;;;;;;5095999;28;20461;-67
2021/06/25 07:20:02;;;;;;;12.17;6.70;;;21.40;99.90;;;;;;5096092;28;20797;-68
2021/06/25 07:22:29;;;;;;;6.90;6.20;;;21.30;1.00;;;;;;5095949;28;20457;-66
2021/06/25 07:24:55;;;;;;;7.30;5.60;;;21.30;99.90;;;;;;5095991;28;20862;-66
2021/06/25 07:27:22;;;;;;;7.27;6.57;;;21.30;45.10;;;;;;5096311;28;20522;-66
2021/06/25 07:29:49;;;;;;;7.83;6.00;;;21.40;10.30;;;;;;5095884;28;20453;-67
2021/06/25 07:32:15;;;;;;;5.73;5.20;;;21.50;1.00;;;;;;5095291;28;20461;-66
2021/06/25 07:34:42;;;;;;;6.57;5.97;;;21.60;23.20;;;;;;5095438;28;20457;-67
2021/06/25 07:37:11;;;;;;;6.77;6.17;;;21.70;1.00;;;;;;5095730;28;20891;-68
2021/06/25 07:39:37;;;;;;;6.50;5.90;;;21.80;1.00;;;;;;5095672;28;20488;-67
2021/06/25 07:42:05;;;;;;;12.70;7.10;;;21.80;1.00;;;;;;5095912;28;20849;-67
2021/06/25 07:44:32;;;;;;;14.70;7.73;;;21.80;99.90;;;;;;5096591;28;20453;-67
2021/06/25 07:46:59;;;;;;;22.77;11.47;;;21.90;99.90;;;;;;5095794;28;20821;-67
2021/06/25 07:49:25;;;;;;;15.70;9.23;;;22.00;1.00;;;;;;5096533;28;20453;-67
2021/06/25 07:51:52;;;;;;;9.87;6.50;;;22.10;1.00;;;;;;5095277;28;20453;-67
2021/06/25 07:54:20;;;;;;;8.00;6.30;;;22.20;1.00;;;;;;5095805;28;20468;-68
2021/06/25 07:56:47;;;;;;;7.57;6.97;;;22.30;1.00;;;;;;5095224;28;20457;-67
2021/06/25 07:59:14;;;;;;;6.83;6.13;;;22.20;1.00;;;;;;5094838;28;20481;-67
2021/06/25 08:01:40;;;;;;;8.10;6.10;;;22.10;1.00;;;;;;5095304;28;20468;-67
2021/06/25 08:04:07;;;;;;;6.40;5.77;;;22.00;1.00;;;;;;5095873;28;20801;-66
2021/06/25 08:06:34;;;;;;;6.20;5.60;;;21.90;1.00;;;;;;5095435;28;20532;-66
2021/06/25 08:09:03;;;;;;;7.37;5.40;;;21.80;1.00;;;;;;5095177;28;20889;-66
2021/06/25 08:11:31;;;;;;;7.20;5.80;;;21.90;1.00;;;;;;5095069;28;20461;-67
2021/06/25 08:13:58;;;;;;;5.97;5.37;;;22.00;1.00;;;;;;5095252;28;20460;-66
2021/06/25 08:16:25;;;;;;;6.47;5.97;;;22.00;1.00;;;;;;5094751;28;20459;-66
2021/06/25 08:18:56;;;;;;;7.73;5.70;;;22.10;1.00;;;;;;5094677;28;20473;-67
2021/06/25 08:21:23;;;;;;;6.80;6.00;;;22.20;1.00;;;;;;5096255;28;20532;-67
2021/06/25 08:23:50;;;;;;;6.30;5.67;;;22.20;99.90;;;;;;5099319;28;20460;-67
2021/06/25 08:26:17;;;;;;;8.10;6.17;;;22.20;99.90;;;;;;5099267;28;20779;-68
2021/06/25 08:28:45;;;;;;;7.03;6.40;;;22.20;99.90;;;;;;5099192;28;20453;-66
2021/06/25 08:31:12;;;;;;;7.67;6.87;;;22.10;99.90;;;;;;5098695;28;20476;-67
2021/06/25 08:33:38;;;;;;;7.53;6.63;;;22.10;99.90;;;;;;5099103;28;20453;-68
2021/06/25 08:36:06;;;;;;;7.40;6.80;;;22.10;99.90;;;;;;5099015;28;20464;-67
2021/06/25 08:38:33;;;;;;;9.10;6.33;;;22.10;99.90;;;;;;5098407;28;20824;-67
2021/06/25 08:41:01;;;;;;;7.67;6.97;;;22.10;99.90;;;;;;5099285;28;20764;-66
2021/06/25 08:43:28;;;;;;;5.77;5.27;;;22.20;99.90;;;;;;5098569;28;20556;-67
2021/06/25 08:45:59;;;;;;;6.37;5.87;;;22.30;99.90;;;;;;5098204;28;20457;-66
2021/06/25 08:48:26;;;;;;;7.27;6.10;;;22.30;99.90;;;;;;5098785;28;20438;-67
2021/06/25 08:50:55;;;;;;;6.90;6.20;;;22.30;99.90;;;;;;5098925;28;20856;-67
2021/06/25 08:53:22;;;;;;;7.47;6.47;;;22.30;99.90;;;;;;5098381;28;20916;-67
2021/06/25 08:55:49;;;;;;;5.70;5.20;;;22.30;99.90;;;;;;5098926;28;20457;-66
2021/06/25 08:58:18;;;;;;;6.23;4.80;;;22.30;99.90;;;;;;5098507;28;20460;-66
2021/06/25 09:00:45;;;;;;;6.17;5.57;;;22.40;99.90;;;;;;5098445;28;20492;-67
2021/06/25 09:03:20;;;;;;;6.63;6.00;;;22.50;99.90;;;;;;5098296;28;20918;-65
2021/06/25 09:05:46;;;;;;;8.80;6.23;;;22.60;99.90;;;;;;5099523;28;20468;-68
2021/06/25 09:08:25;;;;;;;6.80;6.20;;;22.70;99.90;;;;;;5098244;28;20457;-67
2021/06/25 09:10:56;;;;;;;6.50;5.90;;;22.80;99.90;;;;;;5098201;28;20476;-67
2021/06/25 09:13:32;;;;;;;6.63;5.37;;;22.90;99.90;;;;;;5096289;28;20471;-68
2021/06/25 09:15:59;;;;;;;7.00;6.30;;;23.00;99.90;;;;;;5106516;28;20463;-67
2021/06/25 09:18:27;;;;;;;6.20;5.60;;;23.20;99.90;;;;;;5107391;28;20791;-68
2021/06/25 09:20:56;;;;;;;6.10;5.50;;;23.40;99.90;;;;;;5106553;28;20521;-68
2021/06/25 09:23:32;;;;;;;9.10;6.33;;;23.70;99.90;;;;;;5106323;28;20536;-67
2021/06/25 09:26:03;;;;;;;6.00;5.50;;;23.80;99.90;;;;;;5105733;28;20477;-68
2021/06/25 09:28:34;;;;;;;8.83;6.87;;;24.00;99.90;;;;;;5103823;28;20558;-72
2021/06/25 09:31:01;;;;;;;6.27;5.50;;;24.00;99.90;;;;;;5104668;28;20441;-68
2021/06/25 09:33:29;;;;;;;13.37;6.87;;;24.10;99.90;;;;;;5104848;28;20816;-68
2021/06/25 09:35:57;;;;;;;7.10;6.50;;;24.10;99.90;;;;;;5105408;28;20476;-68
2021/06/25 09:38:37;;;;;;;6.57;5.97;;;24.00;99.90;;;;;;5107665;28;20457;-68
2021/06/25 09:41:16;;;;;;;6.83;6.23;;;23.90;99.90;;;;;;5104114;28;20830;-68
2021/06/25 09:43:54;;;;;;;8.00;7.30;;;23.80;99.90;;;;;;5104250;28;20437;-68
2021/06/25 09:46:26;;;;;;;6.80;6.20;;;23.80;99.90;;;;;;5104029;28;20484;-68
2021/06/25 09:48:55;;;;;;;6.73;6.13;;;23.90;99.90;;;;;;5105866;28;20833;-68
2021/06/25 09:51:22;;;;;;;6.43;5.60;;;23.80;24.10;;;;;;5100486;28;20451;-68
2021/06/25 09:54:07;;;;;;;7.57;5.43;;;23.60;16.60;;;;;;5090574;28;20451;-68
2021/06/25 09:56:37;;;;;;;5.60;5.20;;;23.40;22.00;;;;;;5089295;28;20568;-68
2021/06/25 09:59:31;;;;;;;5.57;5.07;;;23.40;23.10;;;;;;5089257;28;20478;-67
2021/06/25 10:01:58;;;;;;;8.57;5.47;;;23.50;9.00;;;;;;5089220;28;20454;-67
2021/06/25 10:04:37;;;;;;;8.63;5.57;;;23.40;5.30;;;;;;5089464;28;20458;-72
2021/06/25 10:07:14;;;;;;;5.53;5.03;;;23.40;17.70;;;;;;5087812;28;20454;-67
2021/06/25 10:09:41;;;;;;;6.30;5.47;;;23.60;15.10;;;;;;5090398;28;20461;-69
2021/06/25 10:12:10;;;;;;;6.13;5.60;;;23.60;3.90;;;;;;5089981;28;20454;-68
2021/06/25 10:14:38;;;;;;;5.50;5.00;;;23.60;1.00;;;;;;5100862;28;20453;-68
2021/06/25 10:17:08;;;;;;;6.60;5.00;;;23.60;1.00;;;;;;5106479;28;20464;-67
2021/06/25 10:19:37;;;;;;;5.97;5.37;;;23.40;1.00;;;;;;5109251;28;20473;-68
2021/06/25 10:22:05;;;;;;;5.50;5.00;;;23.30;1.00;;;;;;5109820;28;20510;-68
2021/06/25 10:24:33;;;;;;;8.70;5.07;;;23.30;3.10;;;;;;5108944;28;20468;-68
2021/06/25 10:27:02;;;;;;;5.40;5.00;;;23.40;1.00;;;;;;5108939;28;20453;-67
2021/06/25 10:29:32;;;;;;;4.93;4.53;;;23.40;7.50;;;;;;5107784;28;20449;-67
2021/06/25 10:31:58;;;;;;;7.80;6.50;;;23.60;2.70;;;;;;5106354;28;20450;-67
2021/06/25 10:34:25;;;;;;;6.13;5.63;;;23.70;1.00;;;;;;5106900;28;20454;-68
2021/06/25 10:36:53;;;;;;;7.73;5.87;;;23.80;1.00;;;;;;5106354;28;20469;-67
2021/06/25 10:39:21;;;;;;;6.20;5.70;;;23.90;1.00;;;;;;5105213;28;20477;-68
2021/06/25 10:41:50;;;;;;;6.93;6.23;;;24.00;1.00;;;;;;5103543;28;20453;-67
2021/06/25 10:44:39;;;;;;;5.83;5.30;;;24.00;1.00;;;;;;5102493;28;20462;-68
2021/06/25 10:47:18;;;;;;;4.87;4.50;;;24.10;1.00;;;;;;5105383;28;20489;-68
2021/06/25 10:50:19;;;;;;;5.33;4.70;;;24.20;1.00;;;;;;5107075;28;20496;-67
2021/06/25 10:53:10;;;;;;;12.83;5.87;;;24.30;1.00;;;;;;5097572;28;20449;-67
2021/06/25 10:55:44;;;;;;;5.83;5.27;;;24.60;1.00;;;;;;5088974;28;20465;-67
2021/06/25 10:58:12;;;;;;;7.00;5.40;;;24.70;1.00;;;;;;5087766;28;20548;-67
2021/06/25 11:00:53;;;;;;;4.50;4.10;;;24.80;1.00;;;;;;5079140;28;20539;-66
2021/06/25 11:03:42;;;;;;;4.33;3.93;;;24.60;1.00;;;;;;5074826;28;20785;-66
2021/06/25 11:06:10;;;;;;;4.90;4.40;;;24.60;1.00;;;;;;5075982;28;20439;-70
2021/06/25 11:09:03;;;;;;;5.10;4.70;;;24.70;1.00;;;;;;5074097;28;20470;-67
2021/06/25 11:11:30;;;;;;;27.40;6.80;;;24.80;1.00;;;;;;5074048;28;20784;-68
2021/06/25 11:13:57;;;;;;;8.80;4.07;;;24.90;1.00;;;;;;5074252;28;20464;-67
2021/06/25 11:16:24;;;;;;;18.93;5.90;;;25.00;1.00;;;;;;5073880;28;20747;-67
2021/06/25 11:18:51;;;;;;;4.80;4.20;;;25.10;1.00;;;;;;5074128;28;20945;-68
2021/06/25 11:21:18;;;;;;;4.53;3.87;;;25.10;1.00;;;;;;5073679;28;20478;-67
2021/06/25 11:23:47;;;;;;;5.50;4.30;;;25.10;1.00;;;;;;5073673;28;20810;-66
2021/06/25 11:26:24;;;;;;;5.03;4.27;;;25.00;1.00;;;;;;5074489;28;20454;-67
2021/06/25 11:28:52;;;;;;;4.63;4.23;;;25.00;1.00;;;;;;5073578;28;20458;-67
2021/06/25 11:31:24;;;;;;;3.80;3.50;;;25.10;1.00;;;;;;5073794;28;20461;-67
2021/06/25 11:34:01;;;;;;;6.23;4.10;;;25.20;1.00;;;;;;5073737;28;20494;-67
2021/06/25 11:36:40;;;;;;;3.90;3.60;;;25.20;1.00;;;;;;5073024;28;20779;-67
2021/06/25 11:39:28;;;;;;;4.80;4.13;;;25.30;1.00;;;;;;5073594;28;20442;-67
2021/06/25 11:42:12;;;;;;;3.70;3.40;;;25.50;1.00;;;;;;5073801;28;20902;-68
2021/06/25 11:44:41;;;;;;;3.67;3.30;;;26.20;1.00;;;;;;5074051;28;20511;-69
2021/06/25 11:47:11;;;;;;;4.30;3.43;;;26.50;1.00;;;;;;5073766;28;20727;-68
2021/06/25 11:49:41;;;;;;;4.43;3.37;;;26.70;1.00;;;;;;5075532;28;20510;-68
2021/06/25 11:52:12;;;;;;;3.50;3.20;;;26.60;1.00;;;;;;5074593;28;20838;-68
2021/06/25 11:54:41;;;;;;;4.10;3.17;;;26.50;1.00;;;;;;5074055;28;20438;-68
2021/06/25 11:57:19;;;;;;;3.53;3.23;;;26.50;1.00;;;;;;5072505;28;20465;-68
2021/06/25 11:59:57;;;;;;;5.00;3.47;;;26.60;1.00;;;;;;5073538;28;20477;-67
2021/06/25 12:02:24;;;;;;;4.47;3.27;;;26.80;1.00;;;;;;5073286;28;20464;-68
2021/06/25 12:04:51;;;;;;;3.20;3.00;;;27.00;1.00;;;;;;5073281;28;20464;-67
2021/06/25 12:07:20;;;;;;;3.90;3.60;;;27.00;1.00;;;;;;5073218;28;20469;-67
2021/06/25 12:09:58;;;;;;;4.10;3.37;;;26.70;1.00;;;;;;5072966;28;20483;-67
2021/06/25 12:12:27;;;;;;;4.10;3.70;;;26.60;1.00;;;;;;5073035;28;20910;-67
2021/06/25 12:14:57;;;;;;;3.47;3.23;;;26.50;1.00;;;;;;5073215;28;20923;-66
2021/06/25 12:17:24;;;;;;;4.10;3.70;;;26.50;1.00;;;;;;5073374;28;20472;-66
2021/06/25 12:20:00;;;;;;;3.97;3.67;;;26.60;1.00;;;;;;5072711;28;20482;-67
2021/06/25 12:22:27;;;;;;;5.23;3.53;;;26.80;1.00;;;;;;5072615;28;20453;-67
2021/06/25 12:24:58;;;;;;;4.20;3.80;;;26.80;1.00;;;;;;5073143;28;20465;-67
2021/06/25 12:27:39;;;;;;;5.33;3.87;;;26.70;1.00;;;;;;5073129;28;20836;-68
2021/06/25 12:30:14;;;;;;;4.70;3.07;;;26.50;1.00;;;;;;5072982;28;20454;-67
2021/06/25 12:32:41;;;;;;;3.17;2.87;;;26.20;1.00;;;;;;5072919;28;20748;-66
2021/06/25 12:35:09;;;;;;;3.53;3.23;;;26.20;1.00;;;;;;5072879;28;20458;-66
2021/06/25 12:37:51;;;;;;;3.80;3.50;;;26.20;1.00;;;;;;5073139;28;20454;-66
2021/06/25 12:40:40;;;;;;;3.47;3.17;;;26.20;1.00;;;;;;5072887;28;20512;-67
2021/06/25 12:43:07;;;;;;;4.70;4.03;;;26.20;1.00;;;;;;5073415;28;20447;-67
2021/06/25 12:45:42;;;;;;;3.90;3.60;;;26.10;1.00;;;;;;5073659;28;20930;-66
2021/06/25 12:48:14;;;;;;;3.43;3.10;;;25.90;1.00;;;;;;5073070;28;20823;-66
2021/06/25 12:50:44;;;;;;;3.20;3.00;;;26.00;1.00;;;;;;5072811;28;20979;-67
2021/06/25 12:53:16;;;;;;;14.90;5.40;;;26.40;1.00;;;;;;5073716;28;20454;-65
2021/06/25 12:55:45;;;;;;;3.53;3.23;;;26.80;1.00;;;;;;5074199;28;20917;-68
2021/06/25 12:58:19;;;;;;;3.53;3.23;;;27.10;1.00;;;;;;5073662;28;20468;-68
2021/06/25 13:00:48;;;;;;;3.63;3.33;;;27.30;1.00;;;;;;5074292;28;20926;-67
2021/06/25 13:03:15;;;;;;;5.77;3.37;;;27.40;1.00;;;;;;5074499;28;20458;-67
2021/06/25 13:05:42;;;;;;;3.90;3.50;;;27.30;1.00;;;;;;5074058;28;20458;-67
2021/06/25 13:08:22;;;;;;;4.23;2.50;;;27.40;1.00;;;;;;5075098;28;20465;-67
2021/06/25 13:10:51;;;;;;;4.00;3.10;;;27.90;1.00;;;;;;5079022;28;20500;-67
2021/06/25 13:13:23;;;;;;;3.73;3.43;;;28.10;1.00;;;;;;5078383;28;20918;-67